This is the latest recevied weather packets stored in our database for station/object SQ6XL-13. If no packets are shown the sender has not sent any weather packets the latest 1 day(s).
| Time | Temp. | Humidity | Pressure | Rain* | Wind** | Luminosity | Snow |
|---|---|---|---|---|---|---|---|
| 1778063047 | 19.44° C | 64% | 1007.5 hPa | 0 mm | - | - | - |
| 1778062447 | 19.44° C | 64% | 1007.6 hPa | 0 mm | - | - | - |
| 1778061897 | 20° C | 63% | 1007.4 hPa | 0 mm | - | - | - |
| 1778061342 | 19.44° C | 64% | 1007.3 hPa | 0 mm | - | - | - |
| 1778059772 | 17.78° C | 68% | 1007 hPa | 0 mm | - | - | - |
| 1778059237 | 17.78° C | 67% | 1006.9 hPa | 0 mm | - | - | - |
| 1778058667 | 16.67° C | 70% | 1006.8 hPa | 0 mm | - | - | - |
| 1778058072 | 16.67° C | 72% | 1006.9 hPa | 0 mm | - | - | - |
| 1778057502 | 16.67° C | 72% | 1007.1 hPa | 0 mm | - | - | - |
| 1778056967 | 16.67° C | 73% | 1007.2 hPa | 0 mm | - | - | - |
| 1778056442 | 16.67° C | 75% | 1007.3 hPa | 0 mm | - | - | - |
| 1778055847 | 16.11° C | 74% | 1007.2 hPa | 0 mm | - | - | - |
| 1778055347 | 16.11° C | 75% | 1007.2 hPa | 0 mm | - | - | - |
| 1778054782 | 16.11° C | 76% | 1007.2 hPa | 0 mm | - | - | - |
| 1778054297 | 16.11° C | 76% | 1007 hPa | 0 mm | - | - | - |
| 1778053717 | 16.11° C | 75% | 1006.9 hPa | 0 mm | - | - | - |
| 1778053122 | 16.67° C | 73% | 1006.8 hPa | 0 mm | - | - | - |
| 1778052642 | 17.22° C | 74% | 1006.9 hPa | 0 mm | - | - | - |
| 1778052082 | 17.22° C | 74% | 1006.7 hPa | 0 mm | - | - | - |
| 1778051597 | 17.22° C | 74% | 1006.8 hPa | 0 mm | - | - | - |
| 1778050497 | 16.67° C | 77% | 1006.7 hPa | 0 mm | - | - | - |
| 1778049972 | 16.67° C | 77% | 1006.7 hPa | 0 mm | - | - | - |
| 1778049492 | 16.11° C | 78% | 1006.7 hPa | 0 mm | - | - | - |
| 1778048997 | 16.11° C | 79% | 1006.8 hPa | 0 mm | - | - | - |
| 1778048407 | 16.11° C | 78% | 1006.5 hPa | 0 mm | - | - | - |
* Rain latest hour (hover to see other rain measurements)
** Current wind speed in m/s (hover to see current wind gust speed)